• Join FlightAware (Why Join?)
  • Login
  • US Flag 
12:02PM EDT


 

Airport Tracker/Info


-or-


 

Live Flight TrackerFlight Track Log ✈ N143DE ✈ 22-Aug-2013 ✈ KJZI - KRYY

Flight Track Log - Related Links

Times and Time Zones

All times are in EDT time to prevent confusion due to time zone crossing. See the N143DE flight status page for this flight to view local times or setup timezone preferences in your user account.

Time Position Orientation Groundspeed Altitude Reporting Facility
EDT Latitude Longitude Course Direction KTS MPH feet Rate Location/Type
12:51PM 32.7003 -80.2389 270° West 153 176 6,700  Level Jacksonville Center
12:52PM 32.7014 -80.2906 271° West 153 176 8,900 1,800 Climbing Jacksonville Center
12:53PM 32.6964 -80.3525 265° West 165 190 10,300 1,680 Climbing Jacksonville Center
12:54PM 32.6953 -80.4067 269° West 172 198 12,300 1,800 Climbing Jacksonville Center
12:55PM 32.6944 -80.4661 269° West 183 211 13,900 840 Climbing Jacksonville Center
12:56PM 32.6894 -80.5403 265° West 201 231 14,000 300 Climbing Jacksonville Center
12:57PM 32.6847 -80.6219 266° West 230 265 14,500 1,560 Climbing Jacksonville Center
12:58PM 32.6836 -80.6736 269° West 214 246 17,200 2,040 Climbing Jacksonville Center
12:59PM 32.6803 -80.7281 266° West 184 212 18,600 1,440 Climbing Jacksonville Center
01:00PM 32.6769 -80.7800 266° West 159 183 20,100 1,380 Climbing Jacksonville Center
01:01PM 32.6736 -80.8294 265° West 159 183 21,400 900 Climbing Jacksonville Center
01:02PM 32.6725 -80.8861 269° West 164 189 22,000 300 Climbing Jacksonville Center
01:03PM 32.6675 -80.9578 265° West 208 239 22,100  Climbing Jacksonville Center
01:04PM 32.6622 -81.0369 265° West 245 282 22,100 -60 Level Jacksonville Center
01:05PM 32.6614 -81.1183 269° West 245 282 22,000  Descending Jacksonville Center
01:06PM 32.6564 -81.2000 266° West 250 288 22,100  Climbing Jacksonville Center
01:07PM 32.6550 -81.2714 269° West 250 288 22,000 -60 Descending Jacksonville Center
01:08PM 32.6458 -81.3606 263° West 255 293 22,000  Level Jacksonville Center
01:09PM 32.6467 -81.4344 271° West 255 293 22,000  Level Jacksonville Center
01:10PM 32.6392 -81.5233 264° West 255 293 22,000  Level Jacksonville Center
01:11PM 32.6361 -81.6050 267° West 255 293 22,000  Level Jacksonville Center
01:13PM 32.6289 -81.7328 266° West 247 284 22,000  Level Atlanta Center
01:14PM 32.6178 -81.8169 261° West 247 284 22,000  Level Atlanta Center
01:15PM 32.5942 -81.8914 249° West 252 290 22,000  Level Atlanta Center
01:16PM 32.5703 -81.9683 250° West 252 290 22,000  Level Atlanta Center
01:17PM 32.5444 -82.0478 249° West 252 290 22,000  Level Atlanta Center
01:18PM 32.5208 -82.1272 251° West 252 290 22,000  Level Atlanta Center
01:19PM 32.4989 -82.2042 251° West 252 290 22,000  Level Atlanta Center
01:20PM 32.5022 -82.2828 273° West 236 272 22,000  Level Atlanta Center
01:21PM 32.5094 -82.3639 276° West 236 272 22,000  Level Atlanta Center
01:22PM 32.5189 -82.4425 278° West 242 278 22,000  Level Atlanta Center
01:23PM 32.5283 -82.5236 278° West 247 284 22,000  Level Atlanta Center
01:24PM 32.5356 -82.6050 276° West 247 284 22,000  Level Atlanta Center
01:25PM 32.5469 -82.6836 280° West 252 290 22,000  Level Atlanta Center
01:26PM 32.5519 -82.7672 274° West 252 290 22,100 -660 Climbing Atlanta Center
01:27PM 32.5758 -82.8458 290° West 252 290 20,700 -1,440 Descending Atlanta Center
01:28PM 32.6328 -82.9067 318° Northwest 262 302 19,300 -1,380 Descending Atlanta Center
01:29PM 32.6936 -82.9603 323° Northwest 272 313 18,000 -1,260 Descending Atlanta Center
01:30PM 32.7528 -83.0236 318° Northwest 282 325 16,800 -1,200 Descending Atlanta Center
01:31PM 32.8200 -83.0897 320° Northwest 282 325 15,600 -1,200 Descending Atlanta Center
01:32PM 32.8767 -83.1483 319° Northwest 282 325 14,400 -1,200 Descending Atlanta Center
01:33PM 32.9356 -83.2047 321° Northwest 282 325 13,300 -1,080 Descending Atlanta Center
01:34PM 32.9881 -83.2636 317° Northwest 282 325 12,300 -900 Descending Atlanta Center
01:35PM 33.0469 -83.3203 321° Northwest 282 325 11,500 -780 Descending Atlanta Center
01:36PM 33.0994 -83.3717 321° Northwest 266 306 10,800 -660 Descending Atlanta Center
01:37PM 33.1561 -83.4283 320° Northwest 261 300 10,200 -660 Descending Atlanta Center
01:38PM 33.2500 -83.5333 317° Northwest 261 300 9,000 -720 Descending Atlanta TRACON
01:39PM 33.3167 -83.6000 320° Northwest 262 302 8,300 -480 Descending Atlanta TRACON
01:40PM 33.3667 -83.6500 320° Northwest 253 291 8,000 -180 Descending Atlanta TRACON
01:41PM 33.4333 -83.7000 328° Northwest 251 289 8,000 -300 Level Atlanta TRACON
01:42PM 33.5000 -83.7167 348° North 254 292 7,400 -720 Descending Atlanta TRACON
01:43PM 33.5667 -83.7500 337° Northwest 252 290 6,600 -660 Descending Atlanta TRACON
01:44PM 33.6333 -83.7833 337° Northwest 246 283 6,100 -360 Descending Atlanta TRACON
01:45PM 33.6833 -83.8000 344° North 242 278 6,000 -60 Descending Atlanta TRACON
01:46PM 33.7500 -83.8333 337° Northwest 233 268 6,000  Level Atlanta TRACON
01:47PM 33.8167 -83.8667 337° Northwest 230 265 6,000  Level Atlanta TRACON
01:49PM 33.8667 -83.8833 345° North 232 267 6,000  Level Atlanta TRACON
01:49PM 33.9333 -83.9333 328° Northwest 242 278 6,000  Level Atlanta TRACON
01:50PM 33.9667 -83.9833 309° West 234 269 6,000  Level Atlanta TRACON
01:51PM 34.0167 -84.0333 320° Northwest 237 273 6,000 -60 Level Atlanta TRACON
01:52PM 34.0333 -84.1167 284° West 237 273 5,900  Descending Atlanta TRACON
01:53PM 34.0167 -84.1833 253° West 217 250 6,000  Climbing Atlanta TRACON
01:54PM 34.0167 -84.2500 270° West 213 245 6,000 -180 Level Atlanta TRACON
01:55PM 34.0333 -84.3333 284° West 212 244 5,700 -960 Descending Atlanta TRACON
01:56PM 34.0167 -84.4000 253° West 219 252 4,100 -1,260 Descending Atlanta TRACON
01:57PM 34.0167 -84.4667 270° West 182 209 3,200 -1,020 Descending Atlanta TRACON
01:58PM 34.0167 -84.5167 270° West 149 171 2,200 -900 Descending Atlanta TRACON
01:59PM 34.0167 -84.5500 270° West 130 150 1,600 -600 Descending Atlanta TRACON
02:01PM 34.0000 -84.5833 270° West  Level FlightAware Approximate
02:08PM 34.0132 -84.5971 270° West  Level Estimated
02:09PM 34.0132 -84.5971 270° West  Level Estimated